sensor_id;sensor_type;location;lat;lon;timestamp;P1;durP1;ratioP1;P2;durP2;ratioP2
65370;SDS011;58485;59.934;30.352;2023-06-14T16:59:59;19.15;;;13.48;;
65370;SDS011;58485;59.934;30.352;2023-06-14T17:00:55;33.05;;;17.42;;
65370;SDS011;58485;59.934;30.352;2023-06-14T17:01:50;23.35;;;17.75;;
65370;SDS011;58485;59.934;30.352;2023-06-14T17:02:45;18.73;;;16.45;;
65370;SDS011;58485;59.934;30.352;2023-06-14T17:03:49;23.85;;;16.70;;
65370;SDS011;58485;59.934;30.352;2023-06-14T17:04:45;27.60;;;18.10;;
65370;SDS011;58485;59.934;30.352;2023-06-14T17:05:52;20.15;;;17.77;;
65370;SDS011;58485;59.934;30.352;2023-06-14T17:06:47;24.10;;;18.17;;
65370;SDS011;58485;59.934;30.352;2023-06-14T17:07:42;21.73;;;16.88;;
65370;SDS011;58485;59.934;30.352;2023-06-14T17:08:36;22.73;;;18.05;;
65370;SDS011;58485;59.934;30.352;2023-06-14T17:09:31;21.38;;;17.00;;
65370;SDS011;58485;59.934;30.352;2023-06-14T17:10:25;19.17;;;16.73;;
65370;SDS011;58485;59.934;30.352;2023-06-14T17:11:20;21.23;;;17.70;;
65370;SDS011;58485;59.934;30.352;2023-06-14T17:12:14;22.33;;;18.08;;
65370;SDS011;58485;59.934;30.352;2023-06-14T17:13:09;28.15;;;17.45;;
65370;SDS011;58485;59.934;30.352;2023-06-14T17:14:04;21.33;;;17.33;;
65370;SDS011;58485;59.934;30.352;2023-06-14T17:15:01;20.90;;;15.88;;
65370;SDS011;58485;59.934;30.352;2023-06-14T17:15:56;18.10;;;15.70;;
65370;SDS011;58485;59.934;30.352;2023-06-14T17:16:51;16.55;;;15.00;;
65370;SDS011;58485;59.934;30.352;2023-06-14T17:17:45;21.75;;;15.40;;
65370;SDS011;58485;59.934;30.352;2023-06-14T17:18:40;16.83;;;14.63;;
65370;SDS011;58485;59.934;30.352;2023-06-14T17:19:33;19.10;;;15.05;;
65370;SDS011;58485;59.934;30.352;2023-06-14T17:20:28;29.27;;;15.85;;
65370;SDS011;58485;59.934;30.352;2023-06-14T17:21:22;20.02;;;14.82;;
65370;SDS011;58485;59.934;30.352;2023-06-14T17:22:17;18.42;;;15.50;;
65370;SDS011;58485;59.934;30.352;2023-06-14T17:23:12;31.73;;;17.73;;
65370;SDS011;58485;59.934;30.352;2023-06-14T17:24:08;26.08;;;16.35;;
65370;SDS011;58485;59.934;30.352;2023-06-14T17:25:01;21.02;;;17.75;;
65370;SDS011;58485;59.934;30.352;2023-06-14T17:25:56;23.67;;;18.58;;
65370;SDS011;58485;59.934;30.352;2023-06-14T17:26:50;28.42;;;18.95;;
65370;SDS011;58485;59.934;30.352;2023-06-14T17:27:45;31.48;;;17.40;;
65370;SDS011;58485;59.934;30.352;2023-06-14T17:28:39;27.92;;;17.05;;
65370;SDS011;58485;59.934;30.352;2023-06-14T17:29:35;26.30;;;16.48;;
65370;SDS011;58485;59.934;30.352;2023-06-14T17:30:29;25.42;;;16.33;;
65370;SDS011;58485;59.934;30.352;2023-06-14T17:31:24;25.83;;;15.90;;
65370;SDS011;58485;59.934;30.352;2023-06-14T17:32:18;22.65;;;14.75;;
65370;SDS011;58485;59.934;30.352;2023-06-14T17:33:13;16.10;;;14.00;;
65370;SDS011;58485;59.934;30.352;2023-06-14T17:34:08;20.15;;;12.18;;
65370;SDS011;58485;59.934;30.352;2023-06-14T17:35:03;24.60;;;11.90;;
65370;SDS011;58485;59.934;30.352;2023-06-14T17:35:57;13.00;;;11.75;;
65370;SDS011;58485;59.934;30.352;2023-06-14T17:36:52;15.63;;;12.23;;
65370;SDS011;58485;59.934;30.352;2023-06-14T17:37:46;13.05;;;11.80;;
65370;SDS011;58485;59.934;30.352;2023-06-14T17:38:41;15.20;;;10.60;;
65370;SDS011;58485;59.934;30.352;2023-06-14T17:39:35;10.23;;;9.27;;
65370;SDS011;58485;59.934;30.352;2023-06-14T17:40:33;15.85;;;9.27;;
65370;SDS011;58485;59.934;30.352;2023-06-14T17:41:28;10.35;;;9.38;;
65370;SDS011;58485;59.934;30.352;2023-06-14T17:42:22;13.20;;;9.63;;
